sensor_id;sensor_type;location;lat;lon;timestamp;temperature;humidity
40868;DHT22;26586;50.708;22.412;2024-01-30T00:00:23;12.00;49.00
40868;DHT22;26586;50.708;22.412;2024-01-30T00:03:09;12.00;48.90
40868;DHT22;26586;50.708;22.412;2024-01-30T00:05:36;12.00;48.70
40868;DHT22;26586;50.708;22.412;2024-01-30T00:08:02;12.00;49.70
40868;DHT22;26586;50.708;22.412;2024-01-30T00:10:29;12.00;49.60
40868;DHT22;26586;50.708;22.412;2024-01-30T00:12:55;11.90;48.70
40868;DHT22;26586;50.708;22.412;2024-01-30T00:15:21;11.90;49.20
40868;DHT22;26586;50.708;22.412;2024-01-30T00:17:47;11.90;48.40
40868;DHT22;26586;50.708;22.412;2024-01-30T00:20:14;11.90;48.50
40868;DHT22;26586;50.708;22.412;2024-01-30T00:22:40;11.90;49.60
40868;DHT22;26586;50.708;22.412;2024-01-30T00:25:06;11.90;48.60
40868;DHT22;26586;50.708;22.412;2024-01-30T00:27:32;11.90;49.90
40868;DHT22;26586;50.708;22.412;2024-01-30T00:29:59;11.90;49.80
40868;DHT22;26586;50.708;22.412;2024-01-30T00:32:25;11.90;49.60
40868;DHT22;26586;50.708;22.412;2024-01-30T00:34:51;11.90;49.80
40868;DHT22;26586;50.708;22.412;2024-01-30T00:37:17;11.90;48.70
40868;DHT22;26586;50.708;22.412;2024-01-30T00:39:43;11.90;49.30
40868;DHT22;26586;50.708;22.412;2024-01-30T00:42:09;11.80;49.60
40868;DHT22;26586;50.708;22.412;2024-01-30T00:44:36;11.90;49.20
40868;DHT22;26586;50.708;22.412;2024-01-30T00:47:05;11.80;49.10
40868;DHT22;26586;50.708;22.412;2024-01-30T00:49:32;11.80;48.50
40868;DHT22;26586;50.708;22.412;2024-01-30T00:51:58;11.80;48.70
40868;DHT22;26586;50.708;22.412;2024-01-30T00:54:24;11.80;48.80
40868;DHT22;26586;50.708;22.412;2024-01-30T00:56:50;11.80;48.30
40868;DHT22;26586;50.708;22.412;2024-01-30T00:59:17;11.80;48.30
40868;DHT22;26586;50.708;22.412;2024-01-30T01:01:43;11.80;48.60
40868;DHT22;26586;50.708;22.412;2024-01-30T01:04:09;11.80;49.50
40868;DHT22;26586;50.708;22.412;2024-01-30T01:06:35;11.80;48.80
40868;DHT22;26586;50.708;22.412;2024-01-30T01:09:02;11.80;49.30
40868;DHT22;26586;50.708;22.412;2024-01-30T01:11:29;11.80;48.80
40868;DHT22;26586;50.708;22.412;2024-01-30T01:13:55;11.80;49.00
40868;DHT22;26586;50.708;22.412;2024-01-30T01:16:21;11.80;49.60
40868;DHT22;26586;50.708;22.412;2024-01-30T01:18:48;11.70;49.10
40868;DHT22;26586;50.708;22.412;2024-01-30T01:21:14;11.80;49.20
40868;DHT22;26586;50.708;22.412;2024-01-30T01:23:40;11.80;49.30
40868;DHT22;26586;50.708;22.412;2024-01-30T01:26:07;11.80;49.10
40868;DHT22;26586;50.708;22.412;2024-01-30T01:28:35;11.70;48.50
40868;DHT22;26586;50.708;22.412;2024-01-30T01:31:01;11.70;49.90
40868;DHT22;26586;50.708;22.412;2024-01-30T01:33:32;11.70;48.70
40868;DHT22;26586;50.708;22.412;2024-01-30T01:35:59;11.70;48.50
40868;DHT22;26586;50.708;22.412;2024-01-30T01:38:28;11.70;48.40
40868;DHT22;26586;50.708;22.412;2024-01-30T01:40:54;11.70;48.60
40868;DHT22;26586;50.708;22.412;2024-01-30T01:43:21;11.70;49.10
40868;DHT22;26586;50.708;22.412;2024-01-30T01:45:47;11.70;49.10
40868;DHT22;26586;50.708;22.412;2024-01-30T01:48:13;11.70;49.70
40868;DHT22;26586;50.708;22.412;2024-01-30T01:50:40;11.70;50.00
40868;DHT22;26586;50.708;22.412;2024-01-30T01:53:08;11.70;50.30
40868;DHT22;26586;50.708;22.412;2024-01-30T01:55:35;11.70;50.10
40868;DHT22;26586;50.708;22.412;2024-01-30T01:58:01;11.70;49.20
40868;DHT22;26586;50.708;22.412;2024-01-30T02:00:27;11.70;50.20
40868;DHT22;26586;50.708;22.412;2024-01-30T02:02:54;11.70;50.10
40868;DHT22;26586;50.708;22.412;2024-01-30T02:05:21;11.70;49.10
40868;DHT22;26586;50.708;22.412;2024-01-30T02:07:48;11.70;48.00
40868;DHT22;26586;50.708;22.412;2024-01-30T02:10:14;11.70;47.20
40868;DHT22;26586;50.708;22.412;2024-01-30T02:12:40;11.70;47.20
40868;DHT22;26586;50.708;22.412;2024-01-30T02:15:06;11.70;47.50
40868;DHT22;26586;50.708;22.412;2024-01-30T02:17:34;11.60;48.10
40868;DHT22;26586;50.708;22.412;2024-01-30T02:20:00;11.60;48.60
40868;DHT22;26586;50.708;22.412;2024-01-30T02:22:27;11.60;48.50
40868;DHT22;26586;50.708;22.412;2024-01-30T02:24:53;11.60;48.10
40868;DHT22;26586;50.708;22.412;2024-01-30T02:27:19;11.60;48.00
40868;DHT22;26586;50.708;22.412;2024-01-30T02:29:46;11.70;48.60
40868;DHT22;26586;50.708;22.412;2024-01-30T02:32:12;11.60;48.80
40868;DHT22;26586;50.708;22.412;2024-01-30T02:34:38;11.60;48.00
40868;DHT22;26586;50.708;22.412;2024-01-30T02:37:05;11.60;48.00
40868;DHT22;26586;50.708;22.412;2024-01-30T02:39:31;11.60;47.40
40868;DHT22;26586;50.708;22.412;2024-01-30T02:41:57;11.50;47.50
40868;DHT22;26586;50.708;22.412;2024-01-30T02:44:23;11.50;47.60
40868;DHT22;26586;50.708;22.412;2024-01-30T02:46:49;11.50;47.10
40868;DHT22;26586;50.708;22.412;2024-01-30T02:49:15;11.50;47.90
40868;DHT22;26586;50.708;22.412;2024-01-30T02:51:42;11.50;47.50
40868;DHT22;26586;50.708;22.412;2024-01-30T02:54:08;11.50;47.40
40868;DHT22;26586;50.708;22.412;2024-01-30T02:56:34;11.50;48.00
40868;DHT22;26586;50.708;22.412;2024-01-30T02:59:00;11.50;48.20
40868;DHT22;26586;50.708;22.412;2024-01-30T03:01:27;11.50;47.80
40868;DHT22;26586;50.708;22.412;2024-01-30T03:03:53;11.40;48.10
40868;DHT22;26586;50.708;22.412;2024-01-30T03:06:19;11.40;48.60
40868;DHT22;26586;50.708;22.412;2024-01-30T03:08:46;11.40;48.40
40868;DHT22;26586;50.708;22.412;2024-01-30T03:11:12;11.40;48.00
40868;DHT22;26586;50.708;22.412;2024-01-30T03:13:38;11.40;47.60
40868;DHT22;26586;50.708;22.412;2024-01-30T03:16:05;11.40;48.10
40868;DHT22;26586;50.708;22.412;2024-01-30T03:18:31;11.40;47.20
40868;DHT22;26586;50.708;22.412;2024-01-30T03:20:57;11.40;47.40
40868;DHT22;26586;50.708;22.412;2024-01-30T03:23:23;11.40;47.40
40868;DHT22;26586;50.708;22.412;2024-01-30T03:25:50;11.40;47.00
40868;DHT22;26586;50.708;22.412;2024-01-30T03:28:16;11.40;47.50
40868;DHT22;26586;50.708;22.412;2024-01-30T03:30:42;11.30;48.10
40868;DHT22;26586;50.708;22.412;2024-01-30T03:33:08;11.30;47.70
40868;DHT22;26586;50.708;22.412;2024-01-30T03:35:35;11.30;48.00
40868;DHT22;26586;50.708;22.412;2024-01-30T03:38:01;11.30;49.40
40868;DHT22;26586;50.708;22.412;2024-01-30T03:40:27;11.30;48.80
40868;DHT22;26586;50.708;22.412;2024-01-30T03:42:53;11.30;47.60
40868;DHT22;26586;50.708;22.412;2024-01-30T03:45:19;11.30;47.30
40868;DHT22;26586;50.708;22.412;2024-01-30T03:47:45;11.30;47.10
40868;DHT22;26586;50.708;22.412;2024-01-30T03:50:12;11.30;48.00
40868;DHT22;26586;50.708;22.412;2024-01-30T03:52:39;11.30;47.30
40868;DHT22;26586;50.708;22.412;2024-01-30T03:55:05;11.30;48.00
40868;DHT22;26586;50.708;22.412;2024-01-30T03:57:31;11.30;48.20
40868;DHT22;26586;50.708;22.412;2024-01-30T03:59:58;11.30;48.00
40868;DHT22;26586;50.708;22.412;2024-01-30T04:02:24;11.20;48.90
40868;DHT22;26586;50.708;22.412;2024-01-30T04:04:50;11.20;48.00
40868;DHT22;26586;50.708;22.412;2024-01-30T04:07:16;11.20;51.10
40868;DHT22;26586;50.708;22.412;2024-01-30T04:09:43;11.20;47.60
40868;DHT22;26586;50.708;22.412;2024-01-30T04:12:09;11.20;49.00
40868;DHT22;26586;50.708;22.412;2024-01-30T04:14:37;11.20;49.10
40868;DHT22;26586;50.708;22.412;2024-01-30T04:17:04;11.30;49.00
40868;DHT22;26586;50.708;22.412;2024-01-30T04:19:30;11.20;48.50
40868;DHT22;26586;50.708;22.412;2024-01-30T04:21:56;11.20;49.00
40868;DHT22;26586;50.708;22.412;2024-01-30T04:24:22;11.20;49.70
40868;DHT22;26586;50.708;22.412;2024-01-30T04:26:57;11.20;49.40
40868;DHT22;26586;50.708;22.412;2024-01-30T04:29:24;11.20;48.80
40868;DHT22;26586;50.708;22.412;2024-01-30T04:31:50;11.20;49.40
40868;DHT22;26586;50.708;22.412;2024-01-30T04:34:16;11.20;50.40
40868;DHT22;26586;50.708;22.412;2024-01-30T04:36:44;11.30;50.60
40868;DHT22;26586;50.708;22.412;2024-01-30T04:39:11;11.30;50.30
40868;DHT22;26586;50.708;22.412;2024-01-30T04:41:38;11.30;49.50
40868;DHT22;26586;50.708;22.412;2024-01-30T04:44:04;11.30;49.10
40868;DHT22;26586;50.708;22.412;2024-01-30T04:46:30;11.30;50.20
40868;DHT22;26586;50.708;22.412;2024-01-30T04:48:57;11.30;49.70
40868;DHT22;26586;50.708;22.412;2024-01-30T04:51:23;11.30;50.20
40868;DHT22;26586;50.708;22.412;2024-01-30T04:53:49;11.30;50.90
40868;DHT22;26586;50.708;22.412;2024-01-30T04:56:15;11.30;50.50
40868;DHT22;26586;50.708;22.412;2024-01-30T04:58:42;11.30;49.90
40868;DHT22;26586;50.708;22.412;2024-01-30T05:01:08;11.30;50.50
40868;DHT22;26586;50.708;22.412;2024-01-30T05:03:34;11.30;50.30
40868;DHT22;26586;50.708;22.412;2024-01-30T05:06:01;11.30;51.30
40868;DHT22;26586;50.708;22.412;2024-01-30T05:08:28;11.30;51.80
40868;DHT22;26586;50.708;22.412;2024-01-30T05:10:54;11.30;49.20
40868;DHT22;26586;50.708;22.412;2024-01-30T05:13:20;11.30;49.30
40868;DHT22;26586;50.708;22.412;2024-01-30T05:15:46;11.30;49.40
40868;DHT22;26586;50.708;22.412;2024-01-30T05:18:13;11.30;48.70
40868;DHT22;26586;50.708;22.412;2024-01-30T05:20:39;11.30;47.50
40868;DHT22;26586;50.708;22.412;2024-01-30T05:23:05;11.30;51.40
40868;DHT22;26586;50.708;22.412;2024-01-30T05:25:31;11.30;49.60
40868;DHT22;26586;50.708;22.412;2024-01-30T05:27:58;11.30;49.30
40868;DHT22;26586;50.708;22.412;2024-01-30T05:30:24;11.40;48.90
40868;DHT22;26586;50.708;22.412;2024-01-30T05:32:50;11.40;48.90
40868;DHT22;26586;50.708;22.412;2024-01-30T05:35:16;11.40;48.90
40868;DHT22;26586;50.708;22.412;2024-01-30T05:37:42;11.40;49.10
40868;DHT22;26586;50.708;22.412;2024-01-30T05:40:09;11.40;48.50
40868;DHT22;26586;50.708;22.412;2024-01-30T05:42:35;11.40;48.60
40868;DHT22;26586;50.708;22.412;2024-01-30T05:45:01;11.40;49.70
40868;DHT22;26586;50.708;22.412;2024-01-30T05:47:28;11.40;49.50
40868;DHT22;26586;50.708;22.412;2024-01-30T05:49:54;11.40;47.40
40868;DHT22;26586;50.708;22.412;2024-01-30T05:52:20;11.50;48.50
40868;DHT22;26586;50.708;22.412;2024-01-30T05:54:46;11.40;47.60
40868;DHT22;26586;50.708;22.412;2024-01-30T05:57:13;11.40;47.40
40868;DHT22;26586;50.708;22.412;2024-01-30T05:59:39;11.40;47.20
40868;DHT22;26586;50.708;22.412;2024-01-30T06:02:05;11.50;46.50
40868;DHT22;26586;50.708;22.412;2024-01-30T06:04:31;11.50;46.60
40868;DHT22;26586;50.708;22.412;2024-01-30T06:06:57;11.50;46.20
40868;DHT22;26586;50.708;22.412;2024-01-30T06:09:23;11.50;46.90
40868;DHT22;26586;50.708;22.412;2024-01-30T06:11:50;11.40;45.90
40868;DHT22;26586;50.708;22.412;2024-01-30T06:14:16;11.40;46.40
40868;DHT22;26586;50.708;22.412;2024-01-30T06:16:42;11.50;48.20
40868;DHT22;26586;50.708;22.412;2024-01-30T06:19:08;11.40;43.90
40868;DHT22;26586;50.708;22.412;2024-01-30T06:21:35;11.30;43.10
40868;DHT22;26586;50.708;22.412;2024-01-30T06:24:02;11.20;42.80
40868;DHT22;26586;50.708;22.412;2024-01-30T06:26:29;11.10;43.10
40868;DHT22;26586;50.708;22.412;2024-01-30T06:28:55;11.00;43.20
40868;DHT22;26586;50.708;22.412;2024-01-30T06:31:21;11.00;43.40
40868;DHT22;26586;50.708;22.412;2024-01-30T06:33:49;10.90;43.40
40868;DHT22;26586;50.708;22.412;2024-01-30T06:36:15;10.80;43.40
40868;DHT22;26586;50.708;22.412;2024-01-30T06:38:41;10.80;43.60
40868;DHT22;26586;50.708;22.412;2024-01-30T06:41:08;10.70;43.60
40868;DHT22;26586;50.708;22.412;2024-01-30T06:43:34;10.70;43.70
40868;DHT22;26586;50.708;22.412;2024-01-30T06:46:01;10.60;43.80
40868;DHT22;26586;50.708;22.412;2024-01-30T06:48:27;10.60;43.90
40868;DHT22;26586;50.708;22.412;2024-01-30T06:50:53;10.60;44.10
40868;DHT22;26586;50.708;22.412;2024-01-30T06:53:20;10.60;44.30
40868;DHT22;26586;50.708;22.412;2024-01-30T06:55:46;10.60;44.30
40868;DHT22;26586;50.708;22.412;2024-01-30T06:58:12;10.60;44.40
40868;DHT22;26586;50.708;22.412;2024-01-30T07:00:39;10.50;44.30
40868;DHT22;26586;50.708;22.412;2024-01-30T07:03:05;10.50;44.50
40868;DHT22;26586;50.708;22.412;2024-01-30T07:05:32;10.50;44.60
40868;DHT22;26586;50.708;22.412;2024-01-30T07:07:58;10.50;44.60
40868;DHT22;26586;50.708;22.412;2024-01-30T07:10:24;10.50;44.70
40868;DHT22;26586;50.708;22.412;2024-01-30T07:12:50;10.50;44.80
40868;DHT22;26586;50.708;22.412;2024-01-30T07:15:16;10.50;44.80
40868;DHT22;26586;50.708;22.412;2024-01-30T07:17:45;10.40;44.90
40868;DHT22;26586;50.708;22.412;2024-01-30T07:20:12;10.40;45.00
40868;DHT22;26586;50.708;22.412;2024-01-30T07:22:38;10.40;45.10
40868;DHT22;26586;50.708;22.412;2024-01-30T07:25:05;10.40;45.30
40868;DHT22;26586;50.708;22.412;2024-01-30T07:27:31;10.40;45.40
40868;DHT22;26586;50.708;22.412;2024-01-30T07:29:57;10.40;45.60
40868;DHT22;26586;50.708;22.412;2024-01-30T07:32:24;10.40;45.80
40868;DHT22;26586;50.708;22.412;2024-01-30T07:34:50;10.40;45.80
40868;DHT22;26586;50.708;22.412;2024-01-30T07:37:16;10.40;46.10
40868;DHT22;26586;50.708;22.412;2024-01-30T07:39:42;10.40;46.10
40868;DHT22;26586;50.708;22.412;2024-01-30T07:42:08;10.40;46.30
40868;DHT22;26586;50.708;22.412;2024-01-30T07:44:35;10.40;46.40
40868;DHT22;26586;50.708;22.412;2024-01-30T07:47:01;10.40;46.50
40868;DHT22;26586;50.708;22.412;2024-01-30T07:49:29;10.40;46.50
40868;DHT22;26586;50.708;22.412;2024-01-30T07:51:55;10.40;46.60
40868;DHT22;26586;50.708;22.412;2024-01-30T07:54:21;10.40;46.70
40868;DHT22;26586;50.708;22.412;2024-01-30T07:56:47;10.40;46.60
40868;DHT22;26586;50.708;22.412;2024-01-30T07:59:13;10.40;46.70
40868;DHT22;26586;50.708;22.412;2024-01-30T08:01:40;10.50;46.80
40868;DHT22;26586;50.708;22.412;2024-01-30T08:04:06;10.50;46.80
40868;DHT22;26586;50.708;22.412;2024-01-30T08:06:32;10.50;46.80
40868;DHT22;26586;50.708;22.412;2024-01-30T08:08:59;10.50;46.70
40868;DHT22;26586;50.708;22.412;2024-01-30T08:11:25;10.50;46.80
40868;DHT22;26586;50.708;22.412;2024-01-30T08:13:55;10.60;46.90
40868;DHT22;26586;50.708;22.412;2024-01-30T08:16:21;10.60;46.90
40868;DHT22;26586;50.708;22.412;2024-01-30T08:18:47;10.60;46.90
40868;DHT22;26586;50.708;22.412;2024-01-30T08:21:13;10.70;47.10
40868;DHT22;26586;50.708;22.412;2024-01-30T08:23:40;10.70;47.10
40868;DHT22;26586;50.708;22.412;2024-01-30T08:26:06;10.70;47.20
40868;DHT22;26586;50.708;22.412;2024-01-30T08:28:32;10.70;47.40
40868;DHT22;26586;50.708;22.412;2024-01-30T08:30:58;10.80;51.70
40868;DHT22;26586;50.708;22.412;2024-01-30T08:33:25;10.80;56.40
40868;DHT22;26586;50.708;22.412;2024-01-30T08:35:51;11.00;55.40
40868;DHT22;26586;50.708;22.412;2024-01-30T08:38:17;11.10;56.80
40868;DHT22;26586;50.708;22.412;2024-01-30T08:40:43;11.30;57.00
40868;DHT22;26586;50.708;22.412;2024-01-30T08:43:10;11.30;55.60
40868;DHT22;26586;50.708;22.412;2024-01-30T08:45:36;11.40;58.10
40868;DHT22;26586;50.708;22.412;2024-01-30T08:48:03;11.60;56.40
40868;DHT22;26586;50.708;22.412;2024-01-30T08:50:29;11.70;60.00
40868;DHT22;26586;50.708;22.412;2024-01-30T08:52:55;11.80;59.00
40868;DHT22;26586;50.708;22.412;2024-01-30T08:55:22;12.00;59.20
40868;DHT22;26586;50.708;22.412;2024-01-30T08:57:49;12.10;58.80
40868;DHT22;26586;50.708;22.412;2024-01-30T09:00:15;12.20;58.50
40868;DHT22;26586;50.708;22.412;2024-01-30T09:02:42;12.30;61.70
40868;DHT22;26586;50.708;22.412;2024-01-30T09:05:08;12.40;57.80
40868;DHT22;26586;50.708;22.412;2024-01-30T09:07:34;12.60;58.70
40868;DHT22;26586;50.708;22.412;2024-01-30T09:10:00;12.70;57.10
40868;DHT22;26586;50.708;22.412;2024-01-30T09:12:27;12.90;55.90
40868;DHT22;26586;50.708;22.412;2024-01-30T09:14:53;13.00;59.60
40868;DHT22;26586;50.708;22.412;2024-01-30T09:17:21;13.20;57.50
40868;DHT22;26586;50.708;22.412;2024-01-30T09:19:47;13.30;54.40
40868;DHT22;26586;50.708;22.412;2024-01-30T09:22:13;13.50;57.30
40868;DHT22;26586;50.708;22.412;2024-01-30T09:24:40;13.60;51.70
40868;DHT22;26586;50.708;22.412;2024-01-30T09:27:10;13.70;52.70
40868;DHT22;26586;50.708;22.412;2024-01-30T09:29:36;13.90;51.20
40868;DHT22;26586;50.708;22.412;2024-01-30T09:32:04;14.00;53.20
40868;DHT22;26586;50.708;22.412;2024-01-30T09:34:30;14.10;52.30
40868;DHT22;26586;50.708;22.412;2024-01-30T09:36:58;14.20;51.20
40868;DHT22;26586;50.708;22.412;2024-01-30T09:39:24;14.30;49.30
40868;DHT22;26586;50.708;22.412;2024-01-30T09:42:05;14.50;49.90
40868;DHT22;26586;50.708;22.412;2024-01-30T09:44:35;14.60;50.40
40868;DHT22;26586;50.708;22.412;2024-01-30T09:47:07;14.70;47.60
40868;DHT22;26586;50.708;22.412;2024-01-30T09:49:34;14.80;46.00
40868;DHT22;26586;50.708;22.412;2024-01-30T09:52:05;14.80;46.40
40868;DHT22;26586;50.708;22.412;2024-01-30T09:54:31;14.90;45.50
40868;DHT22;26586;50.708;22.412;2024-01-30T09:56:58;15.00;46.70
40868;DHT22;26586;50.708;22.412;2024-01-30T09:59:24;15.10;44.80
40868;DHT22;26586;50.708;22.412;2024-01-30T10:01:51;15.20;44.00
40868;DHT22;26586;50.708;22.412;2024-01-30T10:04:17;15.20;42.30
40868;DHT22;26586;50.708;22.412;2024-01-30T10:06:44;15.30;42.40
40868;DHT22;26586;50.708;22.412;2024-01-30T10:09:10;15.30;41.30
40868;DHT22;26586;50.708;22.412;2024-01-30T10:11:36;15.30;41.50
40868;DHT22;26586;50.708;22.412;2024-01-30T10:14:05;15.40;41.20
40868;DHT22;26586;50.708;22.412;2024-01-30T10:16:32;15.50;41.20
40868;DHT22;26586;50.708;22.412;2024-01-30T10:18:58;15.50;40.70
40868;DHT22;26586;50.708;22.412;2024-01-30T10:21:25;15.60;41.00
40868;DHT22;26586;50.708;22.412;2024-01-30T10:23:51;15.70;40.80
40868;DHT22;26586;50.708;22.412;2024-01-30T10:26:17;15.70;41.00
40868;DHT22;26586;50.708;22.412;2024-01-30T10:28:44;15.80;41.20
40868;DHT22;26586;50.708;22.412;2024-01-30T10:31:10;15.90;40.30
40868;DHT22;26586;50.708;22.412;2024-01-30T10:33:36;15.90;40.10
40868;DHT22;26586;50.708;22.412;2024-01-30T10:36:04;16.00;40.10
40868;DHT22;26586;50.708;22.412;2024-01-30T10:38:32;16.10;39.80
40868;DHT22;26586;50.708;22.412;2024-01-30T10:41:00;16.20;40.20
40868;DHT22;26586;50.708;22.412;2024-01-30T10:43:38;16.20;39.60
40868;DHT22;26586;50.708;22.412;2024-01-30T10:46:18;16.30;39.30
40868;DHT22;26586;50.708;22.412;2024-01-30T10:48:55;16.40;39.00
40868;DHT22;26586;50.708;22.412;2024-01-30T10:51:25;16.50;38.90
40868;DHT22;26586;50.708;22.412;2024-01-30T10:53:52;16.60;38.50
40868;DHT22;26586;50.708;22.412;2024-01-30T10:56:22;16.60;38.40
40868;DHT22;26586;50.708;22.412;2024-01-30T10:58:52;16.70;38.50
40868;DHT22;26586;50.708;22.412;2024-01-30T11:01:21;16.70;38.40
40868;DHT22;26586;50.708;22.412;2024-01-30T11:03:52;16.80;38.40
40868;DHT22;26586;50.708;22.412;2024-01-30T11:06:22;16.80;38.50
40868;DHT22;26586;50.708;22.412;2024-01-30T11:09:02;16.90;38.80
40868;DHT22;26586;50.708;22.412;2024-01-30T11:11:30;16.90;38.00
40868;DHT22;26586;50.708;22.412;2024-01-30T11:14:00;17.00;38.20
40868;DHT22;26586;50.708;22.412;2024-01-30T11:16:31;17.00;38.60
40868;DHT22;26586;50.708;22.412;2024-01-30T11:19:00;17.00;39.70
40868;DHT22;26586;50.708;22.412;2024-01-30T11:21:28;17.10;38.60
40868;DHT22;26586;50.708;22.412;2024-01-30T11:23:55;17.10;39.20
40868;DHT22;26586;50.708;22.412;2024-01-30T11:26:27;17.10;38.10
40868;DHT22;26586;50.708;22.412;2024-01-30T11:28:55;17.20;37.70
40868;DHT22;26586;50.708;22.412;2024-01-30T11:31:21;17.20;37.40
40868;DHT22;26586;50.708;22.412;2024-01-30T11:33:52;17.20;37.40
40868;DHT22;26586;50.708;22.412;2024-01-30T11:36:25;17.20;37.00
40868;DHT22;26586;50.708;22.412;2024-01-30T11:38:51;17.20;37.50
40868;DHT22;26586;50.708;22.412;2024-01-30T11:41:18;17.20;37.00
40868;DHT22;26586;50.708;22.412;2024-01-30T11:43:52;17.20;37.30
40868;DHT22;26586;50.708;22.412;2024-01-30T11:46:19;17.20;37.10
40868;DHT22;26586;50.708;22.412;2024-01-30T11:48:45;17.20;37.30
40868;DHT22;26586;50.708;22.412;2024-01-30T11:51:14;17.30;37.40
40868;DHT22;26586;50.708;22.412;2024-01-30T11:53:41;17.30;37.60
40868;DHT22;26586;50.708;22.412;2024-01-30T11:56:08;17.30;37.30
40868;DHT22;26586;50.708;22.412;2024-01-30T11:58:34;17.30;37.30
40868;DHT22;26586;50.708;22.412;2024-01-30T12:01:00;17.30;37.10
40868;DHT22;26586;50.708;22.412;2024-01-30T12:03:27;17.30;37.00
40868;DHT22;26586;50.708;22.412;2024-01-30T12:05:58;17.30;37.10
40868;DHT22;26586;50.708;22.412;2024-01-30T12:08:24;17.30;37.20
40868;DHT22;26586;50.708;22.412;2024-01-30T12:10:57;17.30;37.40
40868;DHT22;26586;50.708;22.412;2024-01-30T12:13:31;17.30;38.30
40868;DHT22;26586;50.708;22.412;2024-01-30T12:15:58;17.30;36.80
40868;DHT22;26586;50.708;22.412;2024-01-30T12:18:24;17.30;37.00
40868;DHT22;26586;50.708;22.412;2024-01-30T12:21:01;17.30;36.70
40868;DHT22;26586;50.708;22.412;2024-01-30T12:23:27;17.30;36.50
40868;DHT22;26586;50.708;22.412;2024-01-30T12:25:54;17.40;36.40
40868;DHT22;26586;50.708;22.412;2024-01-30T12:28:20;17.40;36.10
40868;DHT22;26586;50.708;22.412;2024-01-30T12:30:47;17.40;36.20
40868;DHT22;26586;50.708;22.412;2024-01-30T12:33:17;17.40;36.10
40868;DHT22;26586;50.708;22.412;2024-01-30T12:35:48;17.40;35.90
40868;DHT22;26586;50.708;22.412;2024-01-30T12:38:17;17.40;35.80
40868;DHT22;26586;50.708;22.412;2024-01-30T12:40:43;17.40;35.70
40868;DHT22;26586;50.708;22.412;2024-01-30T12:43:10;17.40;36.00
40868;DHT22;26586;50.708;22.412;2024-01-30T12:45:37;17.40;35.50
40868;DHT22;26586;50.708;22.412;2024-01-30T12:48:03;17.40;35.50
40868;DHT22;26586;50.708;22.412;2024-01-30T12:50:30;17.40;36.40
40868;DHT22;26586;50.708;22.412;2024-01-30T12:52:56;17.40;37.00
40868;DHT22;26586;50.708;22.412;2024-01-30T12:55:23;17.40;36.40
40868;DHT22;26586;50.708;22.412;2024-01-30T12:57:49;17.50;36.80
40868;DHT22;26586;50.708;22.412;2024-01-30T13:00:16;17.50;36.50
40868;DHT22;26586;50.708;22.412;2024-01-30T13:02:43;17.50;37.20
40868;DHT22;26586;50.708;22.412;2024-01-30T13:05:11;17.50;37.50
40868;DHT22;26586;50.708;22.412;2024-01-30T13:07:37;17.50;36.30
40868;DHT22;26586;50.708;22.412;2024-01-30T13:10:03;17.50;35.70
40868;DHT22;26586;50.708;22.412;2024-01-30T13:12:30;17.50;35.30
40868;DHT22;26586;50.708;22.412;2024-01-30T13:14:58;17.50;35.10
40868;DHT22;26586;50.708;22.412;2024-01-30T13:17:27;17.60;34.80
40868;DHT22;26586;50.708;22.412;2024-01-30T13:19:53;17.50;34.50
40868;DHT22;26586;50.708;22.412;2024-01-30T13:22:20;17.50;35.60
40868;DHT22;26586;50.708;22.412;2024-01-30T13:24:50;17.60;36.00
40868;DHT22;26586;50.708;22.412;2024-01-30T13:27:16;17.50;38.20
40868;DHT22;26586;50.708;22.412;2024-01-30T13:29:43;17.60;38.50
40868;DHT22;26586;50.708;22.412;2024-01-30T13:32:09;17.60;40.10
40868;DHT22;26586;50.708;22.412;2024-01-30T13:34:36;17.60;38.40
40868;DHT22;26586;50.708;22.412;2024-01-30T13:37:03;17.60;38.00
40868;DHT22;26586;50.708;22.412;2024-01-30T13:39:29;17.60;37.70
40868;DHT22;26586;50.708;22.412;2024-01-30T13:41:55;17.60;37.10
40868;DHT22;26586;50.708;22.412;2024-01-30T13:44:21;17.60;41.70
40868;DHT22;26586;50.708;22.412;2024-01-30T13:46:47;17.60;49.20
40868;DHT22;26586;50.708;22.412;2024-01-30T13:49:14;17.70;52.80
40868;DHT22;26586;50.708;22.412;2024-01-30T13:51:40;17.70;54.00
40868;DHT22;26586;50.708;22.412;2024-01-30T13:54:06;17.80;55.30
40868;DHT22;26586;50.708;22.412;2024-01-30T13:56:32;17.80;57.60
40868;DHT22;26586;50.708;22.412;2024-01-30T13:58:59;17.80;48.40
40868;DHT22;26586;50.708;22.412;2024-01-30T14:01:27;17.90;44.10
40868;DHT22;26586;50.708;22.412;2024-01-30T14:03:53;17.80;41.20
40868;DHT22;26586;50.708;22.412;2024-01-30T14:06:19;17.70;39.90
40868;DHT22;26586;50.708;22.412;2024-01-30T14:08:45;17.80;37.60
40868;DHT22;26586;50.708;22.412;2024-01-30T14:11:12;17.70;36.20
40868;DHT22;26586;50.708;22.412;2024-01-30T14:13:38;17.70;35.90
40868;DHT22;26586;50.708;22.412;2024-01-30T14:16:05;17.60;35.20
40868;DHT22;26586;50.708;22.412;2024-01-30T14:18:31;17.60;36.10
40868;DHT22;26586;50.708;22.412;2024-01-30T14:20:57;17.50;34.70
40868;DHT22;26586;50.708;22.412;2024-01-30T14:23:24;17.50;35.10
40868;DHT22;26586;50.708;22.412;2024-01-30T14:25:50;17.50;34.70
40868;DHT22;26586;50.708;22.412;2024-01-30T14:28:17;17.50;35.50
40868;DHT22;26586;50.708;22.412;2024-01-30T14:30:43;17.40;34.60
40868;DHT22;26586;50.708;22.412;2024-01-30T14:33:10;17.40;35.50
40868;DHT22;26586;50.708;22.412;2024-01-30T14:35:36;17.40;35.50
40868;DHT22;26586;50.708;22.412;2024-01-30T14:38:02;17.40;35.20
40868;DHT22;26586;50.708;22.412;2024-01-30T14:40:31;17.30;34.60
40868;DHT22;26586;50.708;22.412;2024-01-30T14:43:00;17.30;34.80
40868;DHT22;26586;50.708;22.412;2024-01-30T14:45:27;17.20;34.30
40868;DHT22;26586;50.708;22.412;2024-01-30T14:47:53;17.20;34.50
40868;DHT22;26586;50.708;22.412;2024-01-30T14:50:21;17.10;35.10
40868;DHT22;26586;50.708;22.412;2024-01-30T14:52:48;17.10;34.80
40868;DHT22;26586;50.708;22.412;2024-01-30T14:55:14;17.10;35.20
40868;DHT22;26586;50.708;22.412;2024-01-30T14:57:40;17.10;34.80
40868;DHT22;26586;50.708;22.412;2024-01-30T15:00:08;17.10;35.20
40868;DHT22;26586;50.708;22.412;2024-01-30T15:02:35;17.00;36.40
40868;DHT22;26586;50.708;22.412;2024-01-30T15:05:01;17.00;35.00
40868;DHT22;26586;50.708;22.412;2024-01-30T15:07:28;17.00;35.50
40868;DHT22;26586;50.708;22.412;2024-01-30T15:09:54;17.00;35.90
40868;DHT22;26586;50.708;22.412;2024-01-30T15:12:21;17.00;35.60